sensor_id;sensor_type;location;lat;lon;timestamp;P1;durP1;ratioP1;P2;durP2;ratioP2
76171;SDS011;64929;51.178;4.138;2023-07-02T00:00:28;20.52;;;8.35;;
76171;SDS011;64929;51.178;4.138;2023-07-02T00:02:54;15.65;;;8.32;;
76171;SDS011;64929;51.178;4.138;2023-07-02T00:05:19;22.25;;;8.77;;
76171;SDS011;64929;51.178;4.138;2023-07-02T00:07:45;15.57;;;8.27;;
76171;SDS011;64929;51.178;4.138;2023-07-02T00:10:10;20.95;;;8.43;;
76171;SDS011;64929;51.178;4.138;2023-07-02T00:12:36;19.05;;;8.52;;
76171;SDS011;64929;51.178;4.138;2023-07-02T00:15:02;18.92;;;8.30;;
76171;SDS011;64929;51.178;4.138;2023-07-02T00:17:29;19.23;;;7.93;;
76171;SDS011;64929;51.178;4.138;2023-07-02T00:19:54;20.05;;;8.45;;
76171;SDS011;64929;51.178;4.138;2023-07-02T00:22:20;16.88;;;7.95;;
76171;SDS011;64929;51.178;4.138;2023-07-02T00:24:46;18.45;;;9.07;;
76171;SDS011;64929;51.178;4.138;2023-07-02T00:27:13;18.08;;;8.75;;
76171;SDS011;64929;51.178;4.138;2023-07-02T00:29:38;19.48;;;8.63;;
76171;SDS011;64929;51.178;4.138;2023-07-02T00:32:04;18.33;;;8.48;;
76171;SDS011;64929;51.178;4.138;2023-07-02T00:34:30;19.42;;;8.45;;
76171;SDS011;64929;51.178;4.138;2023-07-02T00:36:56;18.20;;;8.93;;
76171;SDS011;64929;51.178;4.138;2023-07-02T00:39:22;20.65;;;9.20;;
76171;SDS011;64929;51.178;4.138;2023-07-02T00:41:47;19.42;;;8.40;;
76171;SDS011;64929;51.178;4.138;2023-07-02T00:44:13;17.38;;;8.48;;
76171;SDS011;64929;51.178;4.138;2023-07-02T00:46:39;19.92;;;8.93;;
76171;SDS011;64929;51.178;4.138;2023-07-02T00:49:05;20.75;;;9.40;;
76171;SDS011;64929;51.178;4.138;2023-07-02T00:51:33;19.90;;;9.18;;
76171;SDS011;64929;51.178;4.138;2023-07-02T00:53:58;22.92;;;8.90;;
76171;SDS011;64929;51.178;4.138;2023-07-02T00:56:25;19.48;;;9.02;;
76171;SDS011;64929;51.178;4.138;2023-07-02T00:58:52;21.27;;;9.85;;
76171;SDS011;64929;51.178;4.138;2023-07-02T01:01:23;21.42;;;9.95;;
76171;SDS011;64929;51.178;4.138;2023-07-02T01:06:30;24.95;;;10.48;;
76171;SDS011;64929;51.178;4.138;2023-07-02T01:09:03;22.05;;;9.95;;
76171;SDS011;64929;51.178;4.138;2023-07-02T01:11:31;20.13;;;8.98;;
76171;SDS011;64929;51.178;4.138;2023-07-02T01:13:59;24.27;;;9.75;;
76171;SDS011;64929;51.178;4.138;2023-07-02T01:16:37;21.73;;;10.13;;
76171;SDS011;64929;51.178;4.138;2023-07-02T01:19:10;22.70;;;9.63;;
76171;SDS011;64929;51.178;4.138;2023-07-02T01:21:38;20.27;;;9.55;;
76171;SDS011;64929;51.178;4.138;2023-07-02T01:24:04;19.42;;;9.90;;
76171;SDS011;64929;51.178;4.138;2023-07-02T01:26:31;21.00;;;9.52;;
76171;SDS011;64929;51.178;4.138;2023-07-02T01:28:59;19.83;;;8.68;;
76171;SDS011;64929;51.178;4.138;2023-07-02T01:31:44;19.67;;;9.55;;
76171;SDS011;64929;51.178;4.138;2023-07-02T01:34:10;22.40;;;9.13;;
76171;SDS011;64929;51.178;4.138;2023-07-02T01:36:37;22.67;;;9.60;;
76171;SDS011;64929;51.178;4.138;2023-07-02T01:39:03;22.10;;;9.65;;
76171;SDS011;64929;51.178;4.138;2023-07-02T01:41:29;21.30;;;9.52;;
76171;SDS011;64929;51.178;4.138;2023-07-02T01:43:55;20.65;;;9.60;;
76171;SDS011;64929;51.178;4.138;2023-07-02T01:46:21;20.13;;;9.93;;
76171;SDS011;64929;51.178;4.138;2023-07-02T01:48:46;24.35;;;9.70;;
76171;SDS011;64929;51.178;4.138;2023-07-02T01:51:12;18.65;;;9.35;;
76171;SDS011;64929;51.178;4.138;2023-07-02T01:53:38;20.83;;;9.43;;
76171;SDS011;64929;51.178;4.138;2023-07-02T01:56:04;22.80;;;10.50;;
76171;SDS011;64929;51.178;4.138;2023-07-02T01:58:30;23.65;;;10.00;;
76171;SDS011;64929;51.178;4.138;2023-07-02T02:00:56;16.95;;;9.15;;
76171;SDS011;64929;51.178;4.138;2023-07-02T02:03:22;22.40;;;10.25;;
76171;SDS011;64929;51.178;4.138;2023-07-02T02:05:47;18.65;;;8.98;;
76171;SDS011;64929;51.178;4.138;2023-07-02T02:08:13;20.60;;;9.45;;
76171;SDS011;64929;51.178;4.138;2023-07-02T02:10:39;22.13;;;9.38;;
76171;SDS011;64929;51.178;4.138;2023-07-02T02:13:04;21.27;;;9.88;;
76171;SDS011;64929;51.178;4.138;2023-07-02T02:15:30;24.17;;;9.05;;
76171;SDS011;64929;51.178;4.138;2023-07-02T02:17:56;20.27;;;9.23;;
76171;SDS011;64929;51.178;4.138;2023-07-02T02:20:21;21.98;;;9.98;;
76171;SDS011;64929;51.178;4.138;2023-07-02T02:22:47;22.63;;;9.65;;
76171;SDS011;64929;51.178;4.138;2023-07-02T02:25:13;21.55;;;10.30;;
76171;SDS011;64929;51.178;4.138;2023-07-02T02:27:39;20.67;;;9.68;;
76171;SDS011;64929;51.178;4.138;2023-07-02T02:30:04;20.85;;;9.18;;
76171;SDS011;64929;51.178;4.138;2023-07-02T02:32:31;21.73;;;9.73;;
76171;SDS011;64929;51.178;4.138;2023-07-02T02:34:57;22.35;;;10.02;;
76171;SDS011;64929;51.178;4.138;2023-07-02T02:37:23;18.75;;;9.10;;
76171;SDS011;64929;51.178;4.138;2023-07-02T02:39:49;27.00;;;10.38;;
76171;SDS011;64929;51.178;4.138;2023-07-02T02:42:15;18.27;;;9.75;;
76171;SDS011;64929;51.178;4.138;2023-07-02T02:44:41;22.63;;;9.98;;
76171;SDS011;64929;51.178;4.138;2023-07-02T02:47:06;21.88;;;9.43;;
76171;SDS011;64929;51.178;4.138;2023-07-02T02:49:32;20.27;;;9.85;;
76171;SDS011;64929;51.178;4.138;2023-07-02T02:51:58;19.50;;;9.60;;
76171;SDS011;64929;51.178;4.138;2023-07-02T02:54:23;21.33;;;9.75;;
76171;SDS011;64929;51.178;4.138;2023-07-02T02:56:49;27.35;;;10.63;;
76171;SDS011;64929;51.178;4.138;2023-07-02T02:59:15;19.77;;;9.93;;
76171;SDS011;64929;51.178;4.138;2023-07-02T03:01:40;20.35;;;9.57;;
76171;SDS011;64929;51.178;4.138;2023-07-02T03:04:06;24.30;;;9.68;;
76171;SDS011;64929;51.178;4.138;2023-07-02T03:06:33;20.75;;;9.90;;
76171;SDS011;64929;51.178;4.138;2023-07-02T03:08:59;27.25;;;10.50;;
76171;SDS011;64929;51.178;4.138;2023-07-02T03:11:25;26.30;;;10.85;;
76171;SDS011;64929;51.178;4.138;2023-07-02T03:13:50;21.42;;;10.45;;
76171;SDS011;64929;51.178;4.138;2023-07-02T03:16:16;20.58;;;9.80;;
76171;SDS011;64929;51.178;4.138;2023-07-02T03:18:42;23.05;;;10.18;;
76171;SDS011;64929;51.178;4.138;2023-07-02T03:21:08;19.77;;;9.48;;
76171;SDS011;64929;51.178;4.138;2023-07-02T03:23:34;17.67;;;9.30;;
76171;SDS011;64929;51.178;4.138;2023-07-02T03:25:59;22.85;;;10.93;;
76171;SDS011;64929;51.178;4.138;2023-07-02T03:28:25;27.63;;;11.20;;
76171;SDS011;64929;51.178;4.138;2023-07-02T03:30:51;23.38;;;10.30;;
76171;SDS011;64929;51.178;4.138;2023-07-02T03:33:16;21.70;;;9.77;;
76171;SDS011;64929;51.178;4.138;2023-07-02T03:35:42;21.63;;;9.77;;
76171;SDS011;64929;51.178;4.138;2023-07-02T03:38:08;21.25;;;10.55;;
76171;SDS011;64929;51.178;4.138;2023-07-02T03:40:33;25.95;;;10.43;;
76171;SDS011;64929;51.178;4.138;2023-07-02T03:42:59;21.65;;;10.80;;
76171;SDS011;64929;51.178;4.138;2023-07-02T03:45:25;18.30;;;9.32;;
76171;SDS011;64929;51.178;4.138;2023-07-02T03:47:51;26.50;;;10.65;;
76171;SDS011;64929;51.178;4.138;2023-07-02T03:50:17;23.90;;;9.70;;
76171;SDS011;64929;51.178;4.138;2023-07-02T03:52:43;20.30;;;9.85;;
76171;SDS011;64929;51.178;4.138;2023-07-02T03:55:08;26.73;;;10.05;;
76171;SDS011;64929;51.178;4.138;2023-07-02T03:57:34;22.02;;;11.02;;
76171;SDS011;64929;51.178;4.138;2023-07-02T04:00:00;22.55;;;10.90;;
76171;SDS011;64929;51.178;4.138;2023-07-02T04:02:25;19.35;;;9.52;;
76171;SDS011;64929;51.178;4.138;2023-07-02T04:04:51;20.65;;;10.45;;
76171;SDS011;64929;51.178;4.138;2023-07-02T04:07:17;26.95;;;10.85;;
76171;SDS011;64929;51.178;4.138;2023-07-02T04:09:42;24.40;;;11.13;;
76171;SDS011;64929;51.178;4.138;2023-07-02T04:12:08;22.00;;;9.85;;
76171;SDS011;64929;51.178;4.138;2023-07-02T04:14:34;24.10;;;10.07;;
76171;SDS011;64929;51.178;4.138;2023-07-02T04:17:01;24.75;;;10.60;;
76171;SDS011;64929;51.178;4.138;2023-07-02T04:19:28;25.88;;;10.68;;
76171;SDS011;64929;51.178;4.138;2023-07-02T04:21:54;19.65;;;9.10;;
76171;SDS011;64929;51.178;4.138;2023-07-02T04:24:19;22.05;;;9.55;;
76171;SDS011;64929;51.178;4.138;2023-07-02T04:26:45;21.08;;;9.85;;
76171;SDS011;64929;51.178;4.138;2023-07-02T04:29:11;20.80;;;9.50;;
76171;SDS011;64929;51.178;4.138;2023-07-02T04:31:37;21.10;;;9.63;;
76171;SDS011;64929;51.178;4.138;2023-07-02T04:34:03;25.98;;;9.38;;
76171;SDS011;64929;51.178;4.138;2023-07-02T04:36:30;26.50;;;9.90;;
76171;SDS011;64929;51.178;4.138;2023-07-02T04:38:56;23.70;;;10.40;;
76171;SDS011;64929;51.178;4.138;2023-07-02T04:41:22;23.85;;;9.80;;
76171;SDS011;64929;51.178;4.138;2023-07-02T04:43:47;23.05;;;10.00;;
76171;SDS011;64929;51.178;4.138;2023-07-02T04:46:13;21.60;;;9.25;;
76171;SDS011;64929;51.178;4.138;2023-07-02T04:48:39;24.35;;;10.57;;
76171;SDS011;64929;51.178;4.138;2023-07-02T04:51:05;18.50;;;9.60;;
76171;SDS011;64929;51.178;4.138;2023-07-02T04:53:30;20.65;;;9.75;;
76171;SDS011;64929;51.178;4.138;2023-07-02T04:55:56;25.73;;;10.75;;
76171;SDS011;64929;51.178;4.138;2023-07-02T04:58:22;21.83;;;9.73;;
76171;SDS011;64929;51.178;4.138;2023-07-02T05:00:48;23.48;;;9.10;;
76171;SDS011;64929;51.178;4.138;2023-07-02T05:03:14;21.38;;;9.10;;
76171;SDS011;64929;51.178;4.138;2023-07-02T05:05:40;19.45;;;9.38;;
76171;SDS011;64929;51.178;4.138;2023-07-02T05:08:06;22.27;;;9.13;;
76171;SDS011;64929;51.178;4.138;2023-07-02T05:10:32;22.70;;;9.73;;
76171;SDS011;64929;51.178;4.138;2023-07-02T05:12:57;22.60;;;9.18;;
76171;SDS011;64929;51.178;4.138;2023-07-02T05:15:23;20.38;;;9.35;;
76171;SDS011;64929;51.178;4.138;2023-07-02T05:17:49;20.98;;;8.35;;
76171;SDS011;64929;51.178;4.138;2023-07-02T05:20:15;19.83;;;9.68;;
76171;SDS011;64929;51.178;4.138;2023-07-02T05:22:41;21.25;;;9.45;;
76171;SDS011;64929;51.178;4.138;2023-07-02T05:25:06;17.77;;;8.82;;
76171;SDS011;64929;51.178;4.138;2023-07-02T05:27:32;19.67;;;8.60;;
76171;SDS011;64929;51.178;4.138;2023-07-02T05:29:58;23.10;;;9.10;;
76171;SDS011;64929;51.178;4.138;2023-07-02T05:32:24;19.25;;;8.70;;
76171;SDS011;64929;51.178;4.138;2023-07-02T05:34:49;19.50;;;9.23;;
76171;SDS011;64929;51.178;4.138;2023-07-02T05:37:15;22.13;;;9.50;;
76171;SDS011;64929;51.178;4.138;2023-07-02T05:39:41;24.23;;;10.00;;
76171;SDS011;64929;51.178;4.138;2023-07-02T05:42:06;20.05;;;8.93;;
76171;SDS011;64929;51.178;4.138;2023-07-02T05:44:32;19.58;;;8.98;;
76171;SDS011;64929;51.178;4.138;2023-07-02T05:46:58;24.58;;;9.20;;
76171;SDS011;64929;51.178;4.138;2023-07-02T05:49:24;19.00;;;8.98;;
76171;SDS011;64929;51.178;4.138;2023-07-02T05:51:51;17.08;;;8.95;;
76171;SDS011;64929;51.178;4.138;2023-07-02T05:54:17;19.13;;;8.30;;
76171;SDS011;64929;51.178;4.138;2023-07-02T05:56:42;22.70;;;9.93;;
76171;SDS011;64929;51.178;4.138;2023-07-02T05:59:08;19.48;;;8.63;;
76171;SDS011;64929;51.178;4.138;2023-07-02T06:01:34;19.20;;;7.95;;
76171;SDS011;64929;51.178;4.138;2023-07-02T06:03:59;21.95;;;8.30;;
76171;SDS011;64929;51.178;4.138;2023-07-02T06:06:25;17.05;;;7.68;;
76171;SDS011;64929;51.178;4.138;2023-07-02T06:08:51;15.52;;;7.20;;
76171;SDS011;64929;51.178;4.138;2023-07-02T06:11:17;15.93;;;7.25;;
76171;SDS011;64929;51.178;4.138;2023-07-02T06:13:43;15.95;;;6.85;;
76171;SDS011;64929;51.178;4.138;2023-07-02T06:16:08;13.52;;;6.45;;
76171;SDS011;64929;51.178;4.138;2023-07-02T06:18:34;14.82;;;6.55;;
76171;SDS011;64929;51.178;4.138;2023-07-02T06:21:00;14.88;;;5.55;;
76171;SDS011;64929;51.178;4.138;2023-07-02T06:23:25;13.82;;;5.60;;
76171;SDS011;64929;51.178;4.138;2023-07-02T06:25:51;13.43;;;5.60;;
76171;SDS011;64929;51.178;4.138;2023-07-02T06:28:23;10.20;;;4.78;;
76171;SDS011;64929;51.178;4.138;2023-07-02T06:30:50;10.52;;;4.25;;
76171;SDS011;64929;51.178;4.138;2023-07-02T06:33:16;12.10;;;4.90;;
76171;SDS011;64929;51.178;4.138;2023-07-02T06:35:41;9.73;;;4.72;;
76171;SDS011;64929;51.178;4.138;2023-07-02T06:38:07;10.10;;;3.75;;
76171;SDS011;64929;51.178;4.138;2023-07-02T06:40:33;7.35;;;3.95;;
76171;SDS011;64929;51.178;4.138;2023-07-02T06:42:59;7.60;;;3.47;;
76171;SDS011;64929;51.178;4.138;2023-07-02T06:45:24;11.73;;;3.72;;
76171;SDS011;64929;51.178;4.138;2023-07-02T06:47:50;6.43;;;3.63;;
76171;SDS011;64929;51.178;4.138;2023-07-02T06:50:16;8.27;;;3.15;;
76171;SDS011;64929;51.178;4.138;2023-07-02T06:52:41;7.60;;;3.40;;
76171;SDS011;64929;51.178;4.138;2023-07-02T06:55:07;8.88;;;3.50;;
76171;SDS011;64929;51.178;4.138;2023-07-02T06:57:33;7.55;;;3.50;;
76171;SDS011;64929;51.178;4.138;2023-07-02T06:59:59;6.97;;;3.30;;
76171;SDS011;64929;51.178;4.138;2023-07-02T07:02:26;9.15;;;3.55;;
76171;SDS011;64929;51.178;4.138;2023-07-02T07:04:52;5.38;;;3.22;;
76171;SDS011;64929;51.178;4.138;2023-07-02T07:07:18;7.45;;;3.78;;
76171;SDS011;64929;51.178;4.138;2023-07-02T07:09:44;6.80;;;3.28;;
76171;SDS011;64929;51.178;4.138;2023-07-02T07:12:10;8.65;;;2.88;;
76171;SDS011;64929;51.178;4.138;2023-07-02T07:14:35;10.02;;;3.47;;
76171;SDS011;64929;51.178;4.138;2023-07-02T07:17:01;8.40;;;3.17;;
76171;SDS011;64929;51.178;4.138;2023-07-02T07:19:27;6.00;;;2.90;;
76171;SDS011;64929;51.178;4.138;2023-07-02T07:21:53;6.53;;;2.58;;
76171;SDS011;64929;51.178;4.138;2023-07-02T07:24:19;6.63;;;3.15;;
76171;SDS011;64929;51.178;4.138;2023-07-02T07:26:44;6.97;;;2.55;;
76171;SDS011;64929;51.178;4.138;2023-07-02T07:29:10;6.20;;;2.72;;
76171;SDS011;64929;51.178;4.138;2023-07-02T07:31:36;5.95;;;2.67;;
76171;SDS011;64929;51.178;4.138;2023-07-02T07:34:02;9.45;;;2.90;;
76171;SDS011;64929;51.178;4.138;2023-07-02T07:36:28;5.47;;;2.25;;
76171;SDS011;64929;51.178;4.138;2023-07-02T07:38:53;5.80;;;2.35;;
76171;SDS011;64929;51.178;4.138;2023-07-02T07:41:19;4.60;;;2.42;;
76171;SDS011;64929;51.178;4.138;2023-07-02T07:43:45;8.85;;;2.72;;
76171;SDS011;64929;51.178;4.138;2023-07-02T07:46:10;4.88;;;2.17;;
76171;SDS011;64929;51.178;4.138;2023-07-02T07:48:36;5.38;;;2.38;;
76171;SDS011;64929;51.178;4.138;2023-07-02T07:51:02;9.23;;;2.83;;
76171;SDS011;64929;51.178;4.138;2023-07-02T07:53:28;6.30;;;2.65;;
76171;SDS011;64929;51.178;4.138;2023-07-02T07:55:53;5.80;;;2.22;;
76171;SDS011;64929;51.178;4.138;2023-07-02T07:58:19;5.55;;;2.30;;
76171;SDS011;64929;51.178;4.138;2023-07-02T08:00:45;5.43;;;2.58;;
76171;SDS011;64929;51.178;4.138;2023-07-02T08:03:10;5.75;;;2.63;;
76171;SDS011;64929;51.178;4.138;2023-07-02T08:05:36;5.85;;;2.30;;
76171;SDS011;64929;51.178;4.138;2023-07-02T08:08:01;5.70;;;2.75;;
76171;SDS011;64929;51.178;4.138;2023-07-02T08:10:27;5.22;;;2.75;;
76171;SDS011;64929;51.178;4.138;2023-07-02T08:12:53;5.78;;;2.30;;
76171;SDS011;64929;51.178;4.138;2023-07-02T08:15:19;5.55;;;2.22;;
76171;SDS011;64929;51.178;4.138;2023-07-02T08:17:44;7.47;;;2.75;;
76171;SDS011;64929;51.178;4.138;2023-07-02T08:20:11;6.88;;;2.33;;
76171;SDS011;64929;51.178;4.138;2023-07-02T08:22:40;7.65;;;2.85;;
76171;SDS011;64929;51.178;4.138;2023-07-02T08:25:06;3.92;;;2.50;;
76171;SDS011;64929;51.178;4.138;2023-07-02T08:27:32;5.68;;;2.72;;
76171;SDS011;64929;51.178;4.138;2023-07-02T08:29:58;7.18;;;2.42;;
76171;SDS011;64929;51.178;4.138;2023-07-02T08:32:24;6.43;;;2.92;;
76171;SDS011;64929;51.178;4.138;2023-07-02T08:34:49;7.55;;;2.83;;
76171;SDS011;64929;51.178;4.138;2023-07-02T08:37:16;6.63;;;3.13;;
76171;SDS011;64929;51.178;4.138;2023-07-02T08:39:42;8.77;;;2.75;;
76171;SDS011;64929;51.178;4.138;2023-07-02T08:42:08;7.70;;;3.25;;
76171;SDS011;64929;51.178;4.138;2023-07-02T08:44:33;8.63;;;3.00;;
76171;SDS011;64929;51.178;4.138;2023-07-02T08:47:00;6.32;;;3.17;;
76171;SDS011;64929;51.178;4.138;2023-07-02T08:49:26;8.30;;;3.42;;
76171;SDS011;64929;51.178;4.138;2023-07-02T08:51:52;7.03;;;3.10;;
76171;SDS011;64929;51.178;4.138;2023-07-02T08:54:18;7.07;;;3.33;;
76171;SDS011;64929;51.178;4.138;2023-07-02T08:56:44;8.13;;;3.50;;
76171;SDS011;64929;51.178;4.138;2023-07-02T08:59:12;10.93;;;4.13;;
76171;SDS011;64929;51.178;4.138;2023-07-02T09:01:47;10.18;;;4.00;;
76171;SDS011;64929;51.178;4.138;2023-07-02T09:04:17;13.65;;;4.50;;
76171;SDS011;64929;51.178;4.138;2023-07-02T09:06:43;10.63;;;4.80;;
76171;SDS011;64929;51.178;4.138;2023-07-02T09:09:09;12.25;;;4.93;;
76171;SDS011;64929;51.178;4.138;2023-07-02T09:11:34;9.73;;;4.57;;
76171;SDS011;64929;51.178;4.138;2023-07-02T09:14:10;10.93;;;4.35;;
76171;SDS011;64929;51.178;4.138;2023-07-02T09:16:36;12.57;;;5.10;;
76171;SDS011;64929;51.178;4.138;2023-07-02T09:19:05;12.15;;;4.15;;
76171;SDS011;64929;51.178;4.138;2023-07-02T09:24:16;10.32;;;3.95;;
76171;SDS011;64929;51.178;4.138;2023-07-02T09:26:47;8.90;;;4.25;;
76171;SDS011;64929;51.178;4.138;2023-07-02T09:29:24;12.55;;;4.28;;
76171;SDS011;64929;51.178;4.138;2023-07-02T09:31:57;11.40;;;4.50;;
76171;SDS011;64929;51.178;4.138;2023-07-02T09:36:53;12.45;;;4.18;;
76171;SDS011;64929;51.178;4.138;2023-07-02T09:39:20;13.20;;;4.57;;
76171;SDS011;64929;51.178;4.138;2023-07-02T09:41:50;9.80;;;3.90;;
76171;SDS011;64929;51.178;4.138;2023-07-02T09:44:16;10.95;;;4.07;;
76171;SDS011;64929;51.178;4.138;2023-07-02T09:46:49;9.60;;;4.05;;
76171;SDS011;64929;51.178;4.138;2023-07-02T09:49:41;9.90;;;4.45;;
76171;SDS011;64929;51.178;4.138;2023-07-02T09:52:10;9.18;;;5.13;;
76171;SDS011;64929;51.178;4.138;2023-07-02T09:54:37;11.13;;;4.60;;
76171;SDS011;64929;51.178;4.138;2023-07-02T09:57:03;12.20;;;4.85;;
76171;SDS011;64929;51.178;4.138;2023-07-02T09:59:31;8.35;;;3.88;;
76171;SDS011;64929;51.178;4.138;2023-07-02T10:01:56;14.82;;;5.13;;
76171;SDS011;64929;51.178;4.138;2023-07-02T10:04:23;9.75;;;3.85;;
76171;SDS011;64929;51.178;4.138;2023-07-02T10:06:52;11.48;;;3.60;;
76171;SDS011;64929;51.178;4.138;2023-07-02T10:09:20;7.35;;;4.45;;
76171;SDS011;64929;51.178;4.138;2023-07-02T10:12:19;9.27;;;3.75;;
76171;SDS011;64929;51.178;4.138;2023-07-02T10:14:45;8.80;;;3.22;;
76171;SDS011;64929;51.178;4.138;2023-07-02T10:17:25;9.07;;;3.28;;
76171;SDS011;64929;51.178;4.138;2023-07-02T10:19:59;10.00;;;3.55;;
76171;SDS011;64929;51.178;4.138;2023-07-02T10:22:45;9.77;;;3.90;;
76171;SDS011;64929;51.178;4.138;2023-07-02T10:25:23;9.43;;;3.42;;
76171;SDS011;64929;51.178;4.138;2023-07-02T10:27:52;7.72;;;3.63;;
76171;SDS011;64929;51.178;4.138;2023-07-02T10:30:29;8.75;;;3.20;;
76171;SDS011;64929;51.178;4.138;2023-07-02T10:33:06;9.73;;;3.28;;
76171;SDS011;64929;51.178;4.138;2023-07-02T10:35:43;9.35;;;3.47;;
76171;SDS011;64929;51.178;4.138;2023-07-02T10:38:30;7.35;;;2.92;;
76171;SDS011;64929;51.178;4.138;2023-07-02T10:40:59;4.38;;;2.72;;
76171;SDS011;64929;51.178;4.138;2023-07-02T10:45:53;6.25;;;3.22;;
76171;SDS011;64929;51.178;4.138;2023-07-02T10:48:19;6.00;;;2.80;;
76171;SDS011;64929;51.178;4.138;2023-07-02T10:50:45;5.72;;;3.00;;
76171;SDS011;64929;51.178;4.138;2023-07-02T10:53:17;6.47;;;2.83;;
76171;SDS011;64929;51.178;4.138;2023-07-02T10:55:44;6.72;;;3.45;;
76171;SDS011;64929;51.178;4.138;2023-07-02T10:58:11;6.50;;;2.60;;
76171;SDS011;64929;51.178;4.138;2023-07-02T11:00:43;8.87;;;3.27;;
76171;SDS011;64929;51.178;4.138;2023-07-02T11:03:26;10.95;;;3.63;;
76171;SDS011;64929;51.178;4.138;2023-07-02T11:05:52;4.78;;;2.45;;
76171;SDS011;64929;51.178;4.138;2023-07-02T11:08:18;7.72;;;2.80;;
76171;SDS011;64929;51.178;4.138;2023-07-02T11:10:46;8.18;;;3.20;;
76171;SDS011;64929;51.178;4.138;2023-07-02T11:13:16;6.95;;;3.05;;
76171;SDS011;64929;51.178;4.138;2023-07-02T11:15:42;7.68;;;3.00;;
76171;SDS011;64929;51.178;4.138;2023-07-02T11:18:14;7.18;;;2.90;;
76171;SDS011;64929;51.178;4.138;2023-07-02T11:20:41;5.35;;;2.92;;
76171;SDS011;64929;51.178;4.138;2023-07-02T11:25:53;8.35;;;3.22;;
76171;SDS011;64929;51.178;4.138;2023-07-02T11:28:23;6.72;;;2.60;;
76171;SDS011;64929;51.178;4.138;2023-07-02T11:30:49;6.85;;;3.00;;
76171;SDS011;64929;51.178;4.138;2023-07-02T11:33:15;6.78;;;2.67;;
76171;SDS011;64929;51.178;4.138;2023-07-02T11:35:41;5.60;;;2.58;;
76171;SDS011;64929;51.178;4.138;2023-07-02T11:38:08;8.98;;;3.28;;
76171;SDS011;64929;51.178;4.138;2023-07-02T11:40:35;6.15;;;2.45;;
76171;SDS011;64929;51.178;4.138;2023-07-02T11:43:01;5.13;;;2.55;;
76171;SDS011;64929;51.178;4.138;2023-07-02T11:45:27;5.90;;;2.63;;
76171;SDS011;64929;51.178;4.138;2023-07-02T11:47:53;6.25;;;3.10;;
76171;SDS011;64929;51.178;4.138;2023-07-02T11:50:19;8.23;;;2.75;;
76171;SDS011;64929;51.178;4.138;2023-07-02T11:52:45;5.93;;;2.60;;
76171;SDS011;64929;51.178;4.138;2023-07-02T11:55:11;6.45;;;2.60;;
76171;SDS011;64929;51.178;4.138;2023-07-02T11:57:37;7.05;;;2.50;;
76171;SDS011;64929;51.178;4.138;2023-07-02T12:00:03;5.65;;;2.78;;
76171;SDS011;64929;51.178;4.138;2023-07-02T12:02:29;7.90;;;2.95;;
76171;SDS011;64929;51.178;4.138;2023-07-02T12:04:55;5.80;;;2.38;;
76171;SDS011;64929;51.178;4.138;2023-07-02T12:07:21;6.93;;;2.47;;
76171;SDS011;64929;51.178;4.138;2023-07-02T12:09:47;6.22;;;2.60;;
76171;SDS011;64929;51.178;4.138;2023-07-02T12:12:12;6.57;;;2.58;;
76171;SDS011;64929;51.178;4.138;2023-07-02T12:14:38;4.78;;;2.38;;
76171;SDS011;64929;51.178;4.138;2023-07-02T12:17:08;5.28;;;2.40;;
76171;SDS011;64929;51.178;4.138;2023-07-02T12:19:34;7.05;;;2.80;;
76171;SDS011;64929;51.178;4.138;2023-07-02T12:21:59;6.53;;;2.70;;
76171;SDS011;64929;51.178;4.138;2023-07-02T12:24:25;8.45;;;2.78;;
76171;SDS011;64929;51.178;4.138;2023-07-02T12:26:51;5.18;;;2.47;;
76171;SDS011;64929;51.178;4.138;2023-07-02T12:29:17;5.63;;;2.53;;
76171;SDS011;64929;51.178;4.138;2023-07-02T12:31:42;5.10;;;3.08;;
76171;SDS011;64929;51.178;4.138;2023-07-02T12:34:08;4.00;;;2.50;;
76171;SDS011;64929;51.178;4.138;2023-07-02T12:36:33;4.72;;;2.40;;
76171;SDS011;64929;51.178;4.138;2023-07-02T12:38:59;5.55;;;2.75;;
76171;SDS011;64929;51.178;4.138;2023-07-02T12:41:25;5.30;;;2.72;;
76171;SDS011;64929;51.178;4.138;2023-07-02T12:43:50;10.15;;;2.30;;
76171;SDS011;64929;51.178;4.138;2023-07-02T12:46:16;6.80;;;2.85;;
76171;SDS011;64929;51.178;4.138;2023-07-02T12:48:42;6.15;;;3.03;;
76171;SDS011;64929;51.178;4.138;2023-07-02T12:51:07;7.55;;;2.85;;
76171;SDS011;64929;51.178;4.138;2023-07-02T12:53:33;7.35;;;3.38;;
76171;SDS011;64929;51.178;4.138;2023-07-02T12:55:59;8.00;;;2.42;;
76171;SDS011;64929;51.178;4.138;2023-07-02T12:58:24;5.68;;;2.67;;
76171;SDS011;64929;51.178;4.138;2023-07-02T13:00:50;5.25;;;2.60;;
76171;SDS011;64929;51.178;4.138;2023-07-02T13:03:16;5.05;;;2.47;;
76171;SDS011;64929;51.178;4.138;2023-07-02T13:05:43;7.63;;;2.65;;
76171;SDS011;64929;51.178;4.138;2023-07-02T13:08:09;4.95;;;2.53;;
76171;SDS011;64929;51.178;4.138;2023-07-02T13:10:35;6.03;;;2.80;;
76171;SDS011;64929;51.178;4.138;2023-07-02T13:13:02;9.95;;;3.20;;
76171;SDS011;64929;51.178;4.138;2023-07-02T13:15:27;6.15;;;2.60;;
76171;SDS011;64929;51.178;4.138;2023-07-02T13:17:53;5.28;;;2.70;;
76171;SDS011;64929;51.178;4.138;2023-07-02T13:20:19;5.40;;;2.70;;
76171;SDS011;64929;51.178;4.138;2023-07-02T13:22:45;7.65;;;2.95;;
76171;SDS011;64929;51.178;4.138;2023-07-02T13:25:10;6.43;;;2.72;;
76171;SDS011;64929;51.178;4.138;2023-07-02T13:27:36;5.53;;;3.00;;
76171;SDS011;64929;51.178;4.138;2023-07-02T13:30:02;6.97;;;2.88;;
76171;SDS011;64929;51.178;4.138;2023-07-02T13:32:28;8.32;;;2.80;;
76171;SDS011;64929;51.178;4.138;2023-07-02T13:34:54;6.35;;;2.40;;
76171;SDS011;64929;51.178;4.138;2023-07-02T13:37:19;4.13;;;2.45;;
76171;SDS011;64929;51.178;4.138;2023-07-02T13:39:46;6.18;;;3.00;;
76171;SDS011;64929;51.178;4.138;2023-07-02T13:42:13;5.80;;;2.67;;
76171;SDS011;64929;51.178;4.138;2023-07-02T13:44:39;5.45;;;3.22;;
76171;SDS011;64929;51.178;4.138;2023-07-02T13:47:05;5.35;;;2.65;;
76171;SDS011;64929;51.178;4.138;2023-07-02T13:49:31;4.78;;;2.80;;
76171;SDS011;64929;51.178;4.138;2023-07-02T13:51:57;6.53;;;3.00;;
76171;SDS011;64929;51.178;4.138;2023-07-02T13:54:23;6.72;;;2.78;;
76171;SDS011;64929;51.178;4.138;2023-07-02T13:56:49;7.88;;;3.10;;
76171;SDS011;64929;51.178;4.138;2023-07-02T13:59:16;6.78;;;2.70;;
76171;SDS011;64929;51.178;4.138;2023-07-02T14:01:43;9.20;;;2.85;;
76171;SDS011;64929;51.178;4.138;2023-07-02T14:04:09;5.28;;;2.45;;
76171;SDS011;64929;51.178;4.138;2023-07-02T14:06:36;8.35;;;2.97;;
76171;SDS011;64929;51.178;4.138;2023-07-02T14:09:02;7.50;;;3.30;;
76171;SDS011;64929;51.178;4.138;2023-07-02T14:11:29;7.25;;;3.30;;
76171;SDS011;64929;51.178;4.138;2023-07-02T14:13:55;7.38;;;3.13;;
76171;SDS011;64929;51.178;4.138;2023-07-02T14:16:21;6.32;;;3.25;;
76171;SDS011;64929;51.178;4.138;2023-07-02T14:18:49;8.57;;;3.05;;
76171;SDS011;64929;51.178;4.138;2023-07-02T14:21:15;8.15;;;3.20;;
76171;SDS011;64929;51.178;4.138;2023-07-02T14:23:40;5.03;;;2.80;;
76171;SDS011;64929;51.178;4.138;2023-07-02T14:26:06;6.40;;;3.03;;
76171;SDS011;64929;51.178;4.138;2023-07-02T14:28:33;6.20;;;3.05;;
76171;SDS011;64929;51.178;4.138;2023-07-02T14:30:59;7.85;;;2.92;;
76171;SDS011;64929;51.178;4.138;2023-07-02T14:33:26;7.65;;;3.45;;
76171;SDS011;64929;51.178;4.138;2023-07-02T14:35:53;7.63;;;3.08;;
76171;SDS011;64929;51.178;4.138;2023-07-02T14:38:19;6.03;;;2.80;;
76171;SDS011;64929;51.178;4.138;2023-07-02T14:40:45;8.02;;;2.65;;
76171;SDS011;64929;51.178;4.138;2023-07-02T14:43:13;6.40;;;3.03;;
76171;SDS011;64929;51.178;4.138;2023-07-02T14:45:46;5.57;;;2.83;;
76171;SDS011;64929;51.178;4.138;2023-07-02T14:48:13;4.25;;;2.60;;
76171;SDS011;64929;51.178;4.138;2023-07-02T14:50:50;7.18;;;3.45;;